Friday, March 27, 2015
22:11 UTC
  |  Log In   |  Register Free
Airport Search:

Clinton-Sampson County Airport
(KCTZ)

Clinton-Sampson County Airport Diagram
No Airport Diagram Available

FAA data valid effective March 05, 2015 - April 30, 2015 (unless otherwise noted).

 
 
 
 
 
 
 
 
 
 
 
 
 
 

Current Aviation Weather for Clinton-Sampson County Airport (KCTZ)

The most recent METAR observation for KCTZ was updated at: 1408
METAR Summary (Translated METAR)
KCTZ
251355Z AUTO 06004KT 10SM SCT022 BKN050 OVC055 11/07 A3031 RMK AO2 T01050070
KDPL
251355Z AUTO 08005KT 10SM BKN039 OVC049 12/06 A3031 RMK AO2 T01160061
(18.9 nm NE from KCTZ)
KEYF
251355Z AUTO 05003KT 10SM BKN060 OVC085 12/07 A3029 RMK AO2 T01170074
(24.8 nm SW from KCTZ)
TAF
No TAF information found within 50 nm of KCTZ
  Airport Weather Conditions for KCTZ

 Current Weather at CTZ
46° F
Light Rain
North winds at 9.2 mph
CTZ NOAA Radar

Pressure: 29.73 in
Humidity: 97%
Wind: North at 9.2 MPH (8 KT)
Dew Point: 45.5°F
Visibility: 10.00 mi


Airport Weather Forecast for KCTZ

Translated METAR and TAF for KCTZ
Translated METAR for KCTZ (2211 UTC 27 March 2015)
found at http://aviationweather.gov/adds/metars/
 
METAR text: KCTZ 272155Z AUTO 02008G14KT 10SM BKN012 OVC020 08/07 A2976 RMK AO2 P0001 T00760070
Conditions at: KCTZ (CLINTON , NC, US) observed 2155 UTC 27 March 2015
Temperature: 7.6°C (46°F)
Dewpoint: 7.0°C (45°F) [RH = 96%]
Pressure (altimeter): 29.76 inches Hg (1007.9 mb)
Winds: from the NNE (20 degrees) at 9 MPH (8 knots; 4.2 m/s)
gusting to 16 MPH (14 knots; 7.3 m/s)
Visibility: 10 or more miles (16+ km)
Ceiling: 1200 feet AGL
Clouds: broken clouds at 1200 feet AGL
overcast cloud deck at 2000 feet AGL
Weather: automated observation with no human augmentation;
there may or may not be significant weather present at this time
Translated TAF for KCTZ

There is no translated TAF available for this airport

Find All Airport Services Find A Hotel Find A Rental Car Find A Golf Course Find A Restaurant $100 Hamburger



FBO's on the Field
FBO Company Facility Photos Services Transportation Aviation Fuel Prices: Prices include tax
Catering Weather Repair Courtesy Rental Type 100LL JetA JetA+ MOGAS 8087
 
Clinton Flying Service

This FBO has not yet been rated
FS:Shell
Last Updated: Mar-04
Login to update fuel prices
SS:
Contact Clinton Flying ServiceMore FBO Information
 
Add another FBO Facility Photos Catering Weather Repair Courtesy Rental Type 100LL JetA JetA+ MOGAS 8087
Services Transportation Aviation Fuel Prices: Prices include tax


model-print
model-print
model-print
model-print